Time;durP1;ratioP1;P1;durP2;ratioP2;P2;SDS_P1;SDS_P2;PMS_P1;PMS_P2;Temp;Humidity;BMP_temperature;BMP_pressure;BME280_temperature;BME280_humidity;BME280_pressure;Samples;Min_cycle;Max_cycle;Signal;HPM_P1;HPM_P2
2021/10/12 00:01:08;;;;;;;0.20;0.20;;;11.90;90.80;10.90;102397.00;;;;31338509;28;20044;-65
2021/10/12 00:16:09;;;;;;;0.20;0.20;;;11.90;90.90;10.90;102373.00;;;;31343334;28;20102;-65
2021/10/12 00:31:11;;;;;;;1.52;1.45;;;11.50;91.40;10.90;102371.00;;;;31343115;28;20114;-66
2021/10/12 00:46:12;;;;;;;0.20;0.20;;;11.80;91.40;10.90;102348.00;;;;31327432;28;20515;-64
2021/10/12 01:01:16;;;;;;;0.20;0.20;;;11.90;91.40;11.00;102345.00;;;;31345457;28;20056;-66
2021/10/12 01:16:18;;;;;;;0.10;0.10;;;12.00;91.70;11.00;102320.00;;;;31372229;28;20550;-66
2021/10/12 01:31:27;;;;;;;0.20;0.20;;;11.50;93.70;11.10;102296.00;;;;31357171;28;20553;-65
2021/10/12 01:46:35;;;;;;;0.20;0.20;;;12.00;91.40;11.10;102280.00;;;;31334178;28;20056;-64
2021/10/12 02:01:39;;;;;;;0.10;0.10;;;11.90;91.80;11.00;102253.00;;;;31343775;28;20071;-65
2021/10/12 02:16:40;;;;;;;0.10;0.10;;;11.90;91.90;11.00;102238.00;;;;31333173;28;20052;-65
2021/10/12 02:31:44;;;;;;;0.20;0.20;;;11.90;91.40;10.90;102207.00;;;;31259764;28;20520;-65
2021/10/12 02:46:46;;;;;;;0.63;0.63;;;11.80;91.50;10.80;102206.00;;;;31239296;28;20057;-65
2021/10/12 03:01:48;;;;;;;0.20;0.20;;;9.60;90.90;10.80;102180.00;;;;31252026;28;20415;-65
2021/10/12 03:16:49;;;;;;;0.20;0.20;;;11.70;92.00;10.70;102175.00;;;;31243480;28;20642;-65
2021/10/12 03:31:59;;;;;;;0.10;0.10;;;11.70;91.50;10.80;102154.00;;;;31253317;28;20098;-66
2021/10/12 03:47:07;;;;;;;0.20;0.20;;;11.70;91.10;10.70;102129.00;;;;31239300;28;20041;-65
2021/10/12 04:02:09;;;;;;;0.10;0.10;;;11.70;91.30;10.70;102109.00;;;;31246957;28;20057;-66
2021/10/12 04:17:10;;;;;;;0.15;0.15;;;11.60;91.40;10.60;102100.00;;;;31267102;28;20045;-66
2021/10/12 04:32:12;;;;;;;0.20;0.20;;;11.60;92.10;10.60;102074.00;;;;31266151;28;20059;-65
2021/10/12 04:47:14;;;;;;;0.10;0.10;;;11.60;91.20;10.60;102080.00;;;;31237660;28;20986;-65
2021/10/12 05:02:20;;;;;;;0.13;0.13;;;11.50;91.60;10.50;102050.00;;;;31236538;28;20049;-66
2021/10/12 05:17:34;;;;;;;0.20;0.20;;;11.50;92.20;10.50;102038.00;;;;31273442;28;20471;-66
2021/10/12 05:32:36;;;;;;;0.20;0.20;;;11.50;91.80;10.50;102027.00;;;;31363884;28;20502;-65
2021/10/12 05:47:44;;;;;;;0.20;0.20;;;11.50;92.10;10.50;102013.00;;;;31378865;28;20868;-66
2021/10/12 06:02:48;;;;;;;0.20;0.20;;;11.50;92.10;10.60;102007.00;;;;31372196;28;20049;-66
2021/10/12 06:17:49;;;;;;;0.10;0.10;;;12.10;94.20;10.60;101984.00;;;;31379751;28;20454;-67
2021/10/12 06:32:50;;;;;;;0.10;0.10;;;11.50;92.40;10.60;101991.00;;;;31357203;28;20048;-66
2021/10/12 06:47:52;;;;;;;0.10;0.10;;;11.60;92.50;10.70;101975.00;;;;31353488;28;20053;-65
2021/10/12 07:03:39;;;;;;;0.10;0.10;;;11.70;94.90;10.70;101969.00;;;;31337691;28;20056;-65
2021/10/12 07:18:40;;;;;;;0.10;0.10;;;11.80;93.00;10.90;101960.00;;;;31325612;28;20044;-64
2021/10/12 07:33:42;;;;;;;0.10;0.10;;;11.90;92.90;11.00;101954.00;;;;31335303;28;20455;-65
2021/10/12 07:48:44;;;;;;;0.20;0.20;;;12.00;93.10;11.20;101938.00;;;;31359646;28;20068;-64
2021/10/12 08:03:51;;;;;;;0.10;0.10;;;12.10;93.00;11.10;101945.00;;;;31357222;28;20044;-64
2021/10/12 08:18:53;;;;;;;0.20;0.20;;;12.00;93.10;11.20;101927.00;;;;31373785;28;20132;-64
2021/10/12 08:33:54;;;;;;;0.30;0.30;;;12.20;93.00;11.30;101925.00;;;;31361171;28;20486;-64
2021/10/12 08:48:59;;;;;;;0.20;0.20;;;12.30;92.90;11.50;101914.00;;;;31385507;28;20076;-64
2021/10/12 09:04:03;;;;;;;0.10;0.10;;;12.50;93.10;11.70;101901.00;;;;31379268;28;20056;-64
2021/10/12 09:19:10;;;;;;;0.17;0.17;;;12.60;94.50;11.90;101903.00;;;;31347444;28;20157;-64
2021/10/12 09:34:15;;;;;;;0.20;0.20;;;12.90;93.00;11.90;101904.00;;;;31370228;28;20048;-65
2021/10/12 09:49:23;;;;;;;0.10;0.10;;;12.70;93.50;11.80;101877.00;;;;31369275;28;20045;-63
2021/10/12 10:04:30;;;;;;;0.10;0.10;;;13.30;93.20;11.90;101859.00;;;;31341412;28;20037;-64
2021/10/12 10:19:36;;;;;;;0.38;0.38;;;13.30;93.60;12.50;101851.00;;;;31341379;28;20553;-64
2021/10/12 10:34:41;;;;;;;0.63;0.43;;;13.60;94.80;12.80;101829.00;;;;31373661;28;20036;-64
2021/10/12 10:50:25;;;;;;;0.25;0.25;;;14.00;93.40;13.60;101832.00;;;;31371257;28;20529;-65
2021/10/12 11:05:34;;;;;;;;;;;14.40;91.40;13.70;101822.00;;;;31372223;28;20068;-65
2021/10/12 11:20:55;;;;;;;0.10;0.10;;;14.30;91.30;13.50;101816.00;;;;31342489;28;19931;-65
2021/10/12 11:36:02;;;;;;;0.10;0.10;;;14.90;93.30;13.70;101808.00;;;;31251439;28;20067;-65
2021/10/12 11:51:21;;;;;;;0.10;0.10;;;14.60;91.70;13.70;101797.00;;;;31244272;28;20512;-65
2021/10/12 12:06:27;;;;;;;0.10;0.10;;;14.60;91.10;13.90;101790.00;;;;31284536;28;20271;-64
2021/10/12 12:21:33;;;;;;;0.10;0.10;;;14.70;90.80;13.80;101800.00;;;;31264217;28;20711;-64
2021/10/12 12:36:38;;;;;;;0.40;0.40;;;14.70;90.10;14.00;101798.00;;;;31272678;28;20455;-64
2021/10/12 12:51:46;;;;;;;0.10;0.10;;;14.60;89.70;13.70;101803.00;;;;31271258;28;20049;-64
2021/10/12 13:06:54;;;;;;;0.10;0.10;;;14.40;85.10;13.60;101803.00;;;;31249934;28;20041;-65
2021/10/12 13:21:55;;;;;;;0.10;0.10;;;14.70;85.40;14.20;101789.00;;;;31274715;28;20559;-64
2021/10/12 13:36:58;;;;;;;0.75;0.75;;;15.00;78.40;14.10;101806.00;;;;31275003;28;20098;-65
2021/10/12 13:51:59;;;;;;;;;;;14.30;78.10;13.20;101822.00;;;;31252175;28;20052;-65
2021/10/12 14:07:03;;;;;;;0.10;0.10;;;14.40;81.60;13.00;101819.00;;;;31253861;28;19920;-64
2021/10/12 14:22:04;;;;;;;0.10;0.10;;;14.40;75.40;13.40;101821.00;;;;31318222;28;20383;-64
2021/10/12 14:37:10;;;;;;;0.10;0.10;;;14.20;71.40;13.40;101846.00;;;;31383691;28;20566;-64
2021/10/12 14:52:13;;;;;;;0.20;0.20;;;14.10;71.20;13.30;101836.00;;;;31371109;28;20040;-64
2021/10/12 15:07:15;;;;;;;0.10;0.10;;;13.80;72.80;13.40;101839.00;;;;31383127;28;20131;-65
2021/10/12 15:22:16;;;;;;;0.10;0.10;;;14.10;68.70;13.30;101860.00;;;;31329319;28;20065;-64
2021/10/12 15:37:18;;;;;;;0.10;0.10;;;14.10;68.40;13.40;101859.00;;;;31270949;28;20092;-65
2021/10/12 15:52:22;;;;;;;0.10;0.10;;;13.70;69.50;12.50;101888.00;;;;31253775;28;20033;-65
2021/10/12 16:07:23;;;;;;;;;;;13.10;73.50;12.20;101892.00;;;;31257126;28;20777;-65
2021/10/12 16:22:24;;;;;;;0.10;0.10;;;12.90;74.00;11.90;101912.00;;;;31321963;28;19928;-65
2021/10/12 16:37:34;;;;;;;0.10;0.10;;;13.90;77.20;11.60;101943.00;;;;31383499;28;20044;-65
2021/10/12 16:52:38;;;;;;;0.10;0.10;;;12.20;77.80;11.10;101963.00;;;;31383708;28;20045;-65
2021/10/12 17:07:40;;;;;;;0.20;0.20;;;12.00;77.20;10.70;101974.00;;;;31380977;28;20125;-64
2021/10/12 17:22:41;;;;;;;0.13;0.13;;;11.50;83.20;10.30;101999.00;;;;31390999;28;20501;-65
2021/10/12 17:37:42;;;;;;;0.17;0.17;;;11.00;79.90;9.90;102011.00;;;;31389737;28;20068;-65
2021/10/12 17:52:43;;;;;;;0.10;0.10;;;10.70;79.30;9.50;102020.00;;;;31381457;28;20040;-65
2021/10/12 18:07:45;;;;;;;0.10;0.10;;;10.40;87.30;9.10;102035.00;;;;31358233;28;20126;-65
2021/10/12 18:22:46;;;;;;;0.20;0.20;;;10.10;81.90;8.90;102063.00;;;;31305580;28;20045;-65
2021/10/12 18:37:50;;;;;;;0.15;0.15;;;9.80;85.30;8.50;102063.00;;;;31251137;28;20912;-66
2021/10/12 18:52:52;;;;;;;0.10;0.10;;;9.60;85.90;8.30;102087.00;;;;31250615;28;20055;-66
2021/10/12 19:07:54;;;;;;;0.20;0.20;;;9.40;87.10;8.00;102094.00;;;;31256807;28;20079;-64
2021/10/12 19:22:55;;;;;;;0.30;0.30;;;10.30;88.70;7.60;102088.00;;;;31237613;28;20082;-65
2021/10/12 19:38:22;;;;;;;0.20;0.20;;;8.70;85.90;7.40;102090.00;;;;31240134;28;20052;-64
2021/10/12 19:53:23;;;;;;;0.20;0.20;;;8.50;86.80;7.10;102097.00;;;;31251734;28;20037;-64
2021/10/12 20:08:24;;;;;;;0.20;0.20;;;8.20;86.90;6.90;102086.00;;;;31256809;28;20428;-64
2021/10/12 20:23:25;;;;;;;0.20;0.20;;;8.10;88.50;6.80;102093.00;;;;31260830;28;20037;-64
2021/10/12 20:38:27;;;;;;;0.20;0.20;;;8.50;93.20;6.70;102109.00;;;;31276788;28;20044;-64
2021/10/12 20:53:30;;;;;;;0.20;0.20;;;7.90;90.10;6.60;102132.00;;;;31262427;28;20045;-64
2021/10/12 21:08:37;;;;;;;0.20;0.20;;;7.80;90.20;6.50;102134.00;;;;31258860;28;20041;-64
2021/10/12 21:23:38;;;;;;;0.82;0.82;;;;;6.40;102147.00;;;;31259278;28;20494;-64
2021/10/12 21:38:45;;;;;;;0.20;0.20;;;7.60;90.70;6.30;102164.00;;;;31229136;28;20684;-64
2021/10/12 21:53:46;;;;;;;0.20;0.20;;;7.40;89.80;6.10;102155.00;;;;31251556;28;20044;-64
2021/10/12 22:08:47;;;;;;;0.20;0.20;;;7.20;89.80;5.90;102167.00;;;;31252012;28;20080;-64
2021/10/12 22:23:48;;;;;;;0.30;0.30;;;7.10;90.50;5.90;102152.00;;;;31242064;28;20148;-64
2021/10/12 22:38:52;;;;;;;0.27;0.27;;;7.00;93.80;5.80;102168.00;;;;31258278;28;20041;-64
2021/10/12 22:53:58;;;;;;;0.20;0.20;;;7.00;90.20;5.80;102172.00;;;;31262724;28;20041;-64
2021/10/12 23:09:01;;;;;;;;;;;7.00;90.50;5.80;102177.00;;;;31244115;28;20041;-64
2021/10/12 23:24:02;;;;;;;0.20;0.20;;;6.90;90.90;5.70;102175.00;;;;31317598;28;20000;-64
2021/10/12 23:39:04;;;;;;;0.20;0.20;;;6.80;91.50;5.50;102189.00;;;;31336561;28;20538;-64
2021/10/12 23:54:05;;;;;;;0.20;0.20;;;6.80;91.40;5.60;102198.00;;;;31391744;28;20044;-64
